createdAt,value
2023-01-25T00:02:45.243Z,213327.00
2023-01-25T00:08:53.866Z,213301.00
2023-01-25T00:14:56.063Z,213281.00
2023-01-25T00:20:58.361Z,213253.00
2023-01-25T00:27:00.730Z,213215.00
2023-01-25T00:33:15.175Z,213241.00
2023-01-25T00:39:17.415Z,213215.00
2023-01-25T00:45:21.121Z,213215.00
2023-01-25T00:51:24.012Z,213295.00
2023-01-25T00:57:26.253Z,213281.00
2023-01-25T01:03:28.383Z,213341.00
2023-01-25T01:09:30.559Z,213400.00
2023-01-25T01:15:37.003Z,213374.00
2023-01-25T01:21:39.471Z,213380.00
2023-01-25T01:27:41.456Z,213400.00
2023-01-25T01:33:43.818Z,213428.00
2023-01-25T01:39:45.951Z,213468.00
2023-01-25T01:45:48.519Z,213448.00
2023-01-25T01:52:03.386Z,213456.00
2023-01-25T01:58:10.565Z,213468.00
2023-01-25T02:04:14.543Z,213512.00
2023-01-25T02:10:17.652Z,213566.00
2023-01-25T02:16:25.816Z,213526.00
2023-01-25T02:22:52.680Z,213526.00
2023-01-25T02:29:01.237Z,213526.00
2023-01-25T02:35:03.559Z,213518.00
2023-01-25T02:41:34.428Z,213538.00
2023-01-25T02:47:36.951Z,213554.00
2023-01-25T02:53:39.563Z,213566.00
2023-01-25T02:59:41.954Z,213538.00
2023-01-25T03:05:44.859Z,213532.00
2023-01-25T03:11:47.232Z,213554.00
2023-01-25T03:17:51.023Z,213566.00
2023-01-25T03:23:59.250Z,213538.00
2023-01-25T03:30:06.970Z,213554.00
2023-01-25T03:36:10.173Z,213566.00
2023-01-25T03:42:13.744Z,213574.00
2023-01-25T03:48:17.359Z,213627.00
2023-01-25T03:54:20.132Z,213574.00
2023-01-25T04:00:22.615Z,213580.00
2023-01-25T04:06:33.748Z,213566.00
2023-01-25T04:12:36.856Z,213586.00
2023-01-25T04:18:40.293Z,213627.00
2023-01-25T04:24:43.128Z,213614.00
2023-01-25T04:30:45.487Z,213608.00
2023-01-25T04:36:48.032Z,213627.00
2023-01-25T04:42:50.246Z,213620.00
2023-01-25T04:48:52.642Z,213627.00
2023-01-25T04:54:54.788Z,213600.00
2023-01-25T05:01:04.776Z,213574.00
2023-01-25T05:07:07.897Z,213538.00
2023-01-25T05:13:10.025Z,213566.00
2023-01-25T05:19:13.616Z,213580.00
2023-01-25T05:25:55.839Z,213600.00
2023-01-25T05:32:06.630Z,213574.00
2023-01-25T05:38:09.134Z,213518.00
2023-01-25T05:44:11.545Z,213532.00
2023-01-25T05:50:19.023Z,213546.00
2023-01-25T05:56:34.502Z,213546.00
2023-01-25T06:02:37.418Z,213566.00
2023-01-25T06:08:40.008Z,213600.00
2023-01-25T06:14:43.022Z,213641.00
2023-01-25T06:20:45.193Z,213614.00
2023-01-25T06:26:47.751Z,213653.00
2023-01-25T06:32:50.689Z,213627.00
2023-01-25T06:38:53.300Z,213687.00
2023-01-25T06:44:55.348Z,213713.00
2023-01-25T06:50:59.608Z,213699.00
2023-01-25T06:57:01.960Z,213771.00
2023-01-25T07:03:04.173Z,213779.00
2023-01-25T07:09:13.121Z,213740.00
2023-01-25T07:15:15.398Z,213765.00
2023-01-25T07:21:22.859Z,213779.00
2023-01-25T07:27:25.391Z,213807.00
2023-01-25T07:33:28.024Z,213853.00
2023-01-25T07:39:30.400Z,213887.00
2023-01-25T07:45:32.972Z,213892.00
2023-01-25T07:51:35.181Z,213900.00
2023-01-25T07:57:37.453Z,213865.00
2023-01-25T08:03:40.168Z,213940.00
2023-01-25T08:09:42.893Z,214013.00
2023-01-25T08:15:45.111Z,213974.00
2023-01-25T08:21:47.238Z,213940.00
2023-01-25T08:27:49.754Z,213968.00
2023-01-25T08:33:52.421Z,213926.00
2023-01-25T08:39:54.630Z,213954.00
2023-01-25T08:45:58.101Z,213954.00
2023-01-25T08:52:00.437Z,213954.00
2023-01-25T08:58:02.583Z,213988.00
2023-01-25T09:04:05.095Z,214100.00
2023-01-25T09:10:10.527Z,214207.00
2023-01-25T09:16:27.824Z,214235.00
2023-01-25T09:22:31.730Z,214207.00
2023-01-25T09:28:34.114Z,214199.00
2023-01-25T09:34:36.979Z,214241.00
2023-01-25T09:40:42.028Z,214247.00
2023-01-25T09:46:49.743Z,214415.00
2023-01-25T09:53:13.007Z,214554.00
2023-01-25T09:59:17.809Z,214616.00
2023-01-25T10:05:23.773Z,214442.00
2023-01-25T10:11:33.546Z,214395.00
2023-01-25T10:17:43.247Z,214462.00
2023-01-25T10:24:04.884Z,214554.00
2023-01-25T10:30:25.771Z,214508.00
2023-01-25T10:36:31.367Z,214521.00
2023-01-25T10:43:06.624Z,214482.00
2023-01-25T10:49:42.814Z,214664.00
2023-01-25T10:56:03.840Z,214759.00
2023-01-25T11:02:37.135Z,214823.00
2023-01-25T11:08:43.516Z,214796.00
2023-01-25T11:14:50.234Z,214796.00
2023-01-25T11:21:16.634Z,214829.00
2023-01-25T11:27:28.845Z,214871.00
2023-01-25T11:33:32.982Z,214729.00
2023-01-25T11:40:02.882Z,214715.00
2023-01-25T11:46:25.681Z,214776.00
2023-01-25T11:52:30.477Z,214759.00
2023-01-25T11:58:47.754Z,214568.00
2023-01-25T12:05:21.502Z,214527.00
2023-01-25T12:12:01.494Z,214681.00
2023-01-25T12:18:09.520Z,214757.00
2023-01-25T12:24:46.522Z,214594.00
2023-01-25T12:31:00.916Z,214540.00
2023-01-25T12:37:28.244Z,214540.00
2023-01-25T12:43:38.506Z,214442.00
2023-01-25T12:49:46.904Z,214434.00
2023-01-25T12:55:50.141Z,214321.00
2023-01-25T13:02:00.662Z,214482.00
2023-01-25T13:08:31.392Z,214476.00
2023-01-25T13:14:39.209Z,214574.00
2023-01-25T13:20:41.338Z,214582.00
2023-01-25T13:26:53.117Z,214442.00
2023-01-25T13:32:58.965Z,214387.00
2023-01-25T13:39:03.008Z,214409.00
2023-01-25T13:45:20.894Z,214373.00
2023-01-25T13:51:23.816Z,214353.00
2023-01-25T13:57:29.551Z,214333.00
2023-01-25T14:03:36.979Z,214341.00
2023-01-25T14:09:43.650Z,214301.00
2023-01-25T14:15:54.768Z,214247.00
2023-01-25T14:22:21.406Z,214173.00
2023-01-25T14:28:23.787Z,214092.00
2023-01-25T14:34:27.125Z,214106.00
2023-01-25T14:40:31.760Z,214120.00
2023-01-25T14:46:37.389Z,214114.00
2023-01-25T14:52:40.862Z,214038.00
2023-01-25T14:58:43.179Z,214060.00
2023-01-25T15:05:14.640Z,213999.00
2023-01-25T15:11:49.331Z,214013.00
2023-01-25T15:17:51.883Z,213988.00
2023-01-25T15:23:56.078Z,213914.00
2023-01-25T15:29:59.839Z,213920.00
2023-01-25T15:36:01.989Z,213887.00
2023-01-25T15:42:04.355Z,213853.00
2023-01-25T15:48:06.592Z,213867.00
2023-01-25T15:54:09.632Z,213853.00
2023-01-25T16:00:23.512Z,213900.00
2023-01-25T16:06:48.762Z,213934.00
2023-01-25T16:12:51.444Z,213920.00
2023-01-25T16:18:54.018Z,213887.00
2023-01-25T16:24:56.282Z,213900.00
2023-01-25T16:31:02.092Z,213920.00
2023-01-25T16:37:04.555Z,213881.00
2023-01-25T16:43:06.934Z,213892.00
2023-01-25T16:49:18.828Z,213867.00
2023-01-25T16:55:21.218Z,213825.00
2023-01-25T17:01:24.479Z,213751.00
2023-01-25T17:07:26.628Z,213727.00
2023-01-25T17:13:29.154Z,213699.00
2023-01-25T17:19:31.636Z,213765.00
2023-01-25T17:25:35.799Z,213787.00
2023-01-25T17:31:40.093Z,213779.00
2023-01-25T17:37:42.293Z,213793.00
2023-01-25T17:43:44.560Z,213805.00
2023-01-25T17:49:46.880Z,213779.00
2023-01-25T17:55:48.934Z,213787.00
2023-01-25T18:01:51.265Z,213740.00
2023-01-25T18:07:53.573Z,213699.00
2023-01-25T18:13:57.049Z,213713.00
2023-01-25T18:19:59.512Z,213693.00
2023-01-25T18:26:01.915Z,213699.00
2023-01-25T18:32:05.104Z,213693.00
2023-01-25T18:38:08.800Z,213713.00
2023-01-25T18:44:11.312Z,213727.00
2023-01-25T18:50:16.690Z,213751.00
2023-01-25T18:56:21.366Z,213765.00
2023-01-25T19:02:24.017Z,213746.00
2023-01-25T19:08:27.427Z,213693.00
2023-01-25T19:14:30.903Z,213713.00
2023-01-25T19:20:33.068Z,213727.00
2023-01-25T19:26:35.240Z,213699.00
2023-01-25T19:32:37.531Z,213667.00
2023-01-25T19:38:40.553Z,213687.00
2023-01-25T19:44:42.961Z,213641.00
2023-01-25T19:50:45.217Z,213667.00
2023-01-25T19:56:49.500Z,213693.00
2023-01-25T20:02:51.800Z,213679.00
2023-01-25T20:08:54.745Z,213627.00
2023-01-25T20:14:57.488Z,213641.00
2023-01-25T20:21:08.424Z,213659.00
2023-01-25T20:27:10.666Z,213641.00
2023-01-25T20:33:13.367Z,213627.00
2023-01-25T20:39:23.062Z,213574.00
2023-01-25T20:45:25.286Z,213566.00
2023-01-25T20:51:27.686Z,213566.00
2023-01-25T20:57:29.665Z,213538.00
2023-01-25T21:03:31.774Z,213600.00
2023-01-25T21:09:34.340Z,213608.00
2023-01-25T21:15:37.817Z,213586.00
2023-01-25T21:21:40.036Z,213580.00
2023-01-25T21:27:42.449Z,213566.00
2023-01-25T21:33:44.849Z,213554.00
2023-01-25T21:39:46.854Z,213574.00
2023-01-25T21:46:07.469Z,213586.00
2023-01-25T21:52:09.692Z,213586.00
2023-01-25T21:58:11.855Z,213566.00
2023-01-25T22:04:15.822Z,213554.00
2023-01-25T22:10:18.691Z,213600.00
2023-01-25T22:16:22.418Z,213538.00
2023-01-25T22:22:25.006Z,213520.00
2023-01-25T22:28:27.555Z,213520.00
2023-01-25T22:34:29.792Z,213538.00
2023-01-25T22:40:32.033Z,213546.00
2023-01-25T22:46:34.601Z,213566.00
2023-01-25T22:52:37.148Z,213586.00
2023-01-25T22:58:39.976Z,213586.00
2023-01-25T23:04:42.224Z,213614.00
2023-01-25T23:10:44.500Z,213608.00
2023-01-25T23:16:47.441Z,213574.00
2023-01-25T23:22:51.219Z,213538.00
2023-01-25T23:28:55.358Z,213538.00
2023-01-25T23:34:57.687Z,213526.00
2023-01-25T23:41:01.621Z,213486.00
2023-01-25T23:47:03.922Z,213456.00
2023-01-25T23:53:06.330Z,213448.00
2023-01-25T23:59:08.509Z,213456.00
